Terminal Aerodrome Forecast
Issued by NWS

Home | Current Version | Previous Version | Text Only | Print | Product List | Glossary On
Versions: 1 2 3 4 5 6 7 8 9 10 11 12 13 14
000
FTUS46 KSTO 262326
TAFSAC
TAF
KSAC 262326Z 2700/2724 17008KT P6SM VCSH OVC060
     FM270500 18006KT P6SM BKN030
     FM271600 31008KT P6SM BKN050=

USA.gov is the U.S. government's official web portal to all federal, state and local government web resources and services.